首页
METAR-TAF:

METAR-TAF

机场 :

贝鲁特, 黎巴嫩

纬度: 33-49N, 经度: 035-29E, 海拔: 29米

当前天气观测

该预报发布于1小时和50分钟前的22:00 UTC
风速6节,风向东南
温度 23°C
湿度 53%
气压 1016 hPa
能见度10公里或以上
1500米以下无云,无积雨云

METAR: OLBA 212200Z 14006KT CAVOK 23/13 Q1016 NOSIG

时间: 02:50 (23:50 UTC)

预报

该预报发布于1小时和50分钟前的22:00 UTC
预报有效从22日的 00点(UTC)到 23日的 06点(UTC)
风速5节,风向南转南东
能见度10公里或以上
1500米以下无云,无积雨云
成为
从 22日的 06点(UTC)到 22日的 08点(UTC)
风速14节,风向西
能見度: 8000
几率 30% :
短暂存在
从 22日的 06点(UTC)到 22日的 14点(UTC)
能見度: 5000
成为
从 22日的 16点(UTC)到 22日的 18点(UTC)
风速6节,风向北转东北
少量云层高于5000英尺
散云层高于18000英尺

TAF: OLBA 212200Z 2200/2306 15005KT CAVOK BECMG 2206/2208 28014KT 8000 NSC PROB30 TEMPO 2206/2214 5000 HZ BECMG 2216/2218 02006KT FEW050 SCT180

超过4000个机场的气象观测和天气预报(METAR&TAF报告)。

可查询的气象台以黄色和红色小点在地图上表示。

将鼠标移到小点上方,可查看气象台名称。

然后点击查看天气观测和预报。

如需切换地图:点击带黑十字的绿色按钮放大地图;点击带横线的绿色按钮缩小地图;或者点击绿色箭头查看邻近地区的地图。


METAR-TAF: